createdAt,value
2022-10-21T00:00:52.402Z,100931.31
2022-10-21T00:02:55.038Z,100873.03
2022-10-21T00:04:57.561Z,100914.28
2022-10-21T00:07:06.034Z,100910.72
2022-10-21T00:09:08.682Z,100891.75
2022-10-21T00:11:11.345Z,100839.66
2022-10-21T00:13:13.896Z,100932.44
2022-10-21T00:15:17.707Z,100903.22
2022-10-21T00:17:20.253Z,100866.28
2022-10-21T00:19:22.860Z,100884.13
2022-10-21T00:21:25.669Z,100921.72
2022-10-21T00:23:28.184Z,100943.53
2022-10-21T00:25:38.346Z,100934.03
2022-10-21T00:27:41.173Z,100919.75
2022-10-21T00:29:43.847Z,100912.78
2022-10-21T00:31:46.342Z,100885.69
2022-10-21T00:33:49.277Z,100947.50
2022-10-21T00:35:59.299Z,100935.94
2022-10-21T00:38:02.051Z,100917.28
2022-10-21T00:40:05.054Z,100903.16
2022-10-21T00:42:16.462Z,100942.91
2022-10-21T00:44:19.123Z,100886.75
2022-10-21T00:46:36.172Z,100919.59
2022-10-21T00:48:45.618Z,100882.69
2022-10-21T00:52:07.407Z,100943.00
2022-10-21T00:54:10.736Z,100914.78
2022-10-21T00:56:18.326Z,100852.63
2022-10-21T00:58:27.353Z,100921.16
2022-10-21T01:00:30.160Z,100884.00
2022-10-21T01:02:33.329Z,100896.34
2022-10-21T01:04:36.079Z,100873.94
2022-10-21T01:06:40.424Z,100813.19
2022-10-21T01:08:43.533Z,100819.59
2022-10-21T01:10:46.475Z,100884.19
2022-10-21T01:13:15.739Z,100895.41
2022-10-21T01:15:48.866Z,100899.91
2022-10-21T01:18:14.174Z,100897.50
2022-10-21T01:20:58.589Z,100879.22
2022-10-21T01:23:58.673Z,100862.66
2022-10-21T01:26:16.626Z,100877.94
2022-10-21T01:29:05.123Z,100876.59
2022-10-21T01:31:21.455Z,100875.78
2022-10-21T01:33:45.903Z,100873.16
2022-10-21T01:36:17.872Z,100824.91
2022-10-21T01:38:31.994Z,100834.25
2022-10-21T01:40:56.593Z,100852.47
2022-10-21T01:43:16.950Z,100821.56
2022-10-21T01:45:36.696Z,100794.16
2022-10-21T01:47:53.460Z,100832.19
2022-10-21T01:50:02.879Z,100833.56
2022-10-21T01:52:06.489Z,100770.03
2022-10-21T01:54:23.142Z,100793.53
2022-10-21T01:56:26.856Z,100706.59
2022-10-21T01:58:35.350Z,100802.03
2022-10-21T02:00:39.570Z,100790.69
2022-10-21T02:02:47.997Z,100760.03
2022-10-21T02:04:52.053Z,100790.34
2022-10-21T02:06:54.629Z,100772.88
2022-10-21T02:08:57.390Z,100781.75
2022-10-21T02:11:06.394Z,100770.47
2022-10-21T02:13:12.300Z,100774.25
2022-10-21T02:15:17.060Z,100703.19
2022-10-21T02:17:22.436Z,100783.50
2022-10-21T02:19:34.390Z,100761.13
2022-10-21T02:21:37.326Z,100727.91
2022-10-21T02:23:55.231Z,100778.72
2022-10-21T02:25:57.853Z,100767.94
2022-10-21T02:28:03.444Z,100744.38
2022-10-21T02:30:07.712Z,100765.63
2022-10-21T02:32:34.113Z,100748.94
2022-10-21T02:35:16.534Z,100767.03
2022-10-21T02:40:09.487Z,100731.06
2022-10-21T02:42:20.413Z,100722.03
2022-10-21T02:44:23.247Z,100721.81
2022-10-21T02:46:27.182Z,100693.44
2022-10-21T02:48:34.581Z,100761.84
2022-10-21T02:50:37.776Z,100724.44
2022-10-21T02:52:57.770Z,100762.81
2022-10-21T02:55:00.323Z,100673.94
2022-10-21T02:57:02.856Z,100664.22
2022-10-21T02:59:05.396Z,100726.97
2022-10-21T03:01:07.995Z,100652.50
2022-10-21T03:03:10.608Z,100693.00
2022-10-21T03:05:13.219Z,100654.56
2022-10-21T03:07:15.840Z,100759.38
2022-10-21T03:09:18.360Z,100654.75
2022-10-21T03:11:20.981Z,100712.13
2022-10-21T03:13:23.600Z,100720.88
2022-10-21T03:15:26.147Z,100742.28
2022-10-21T03:17:28.667Z,100729.03
2022-10-21T03:19:31.226Z,100732.22
2022-10-21T03:21:35.736Z,100724.94
2022-10-21T03:23:38.282Z,100716.84
2022-10-21T03:25:40.837Z,100718.25
2022-10-21T03:27:43.324Z,100725.66
2022-10-21T03:29:45.942Z,100595.69
2022-10-21T03:32:15.017Z,100694.91
2022-10-21T03:34:17.722Z,100720.41
2022-10-21T03:36:20.953Z,100718.66
2022-10-21T03:38:23.498Z,100682.72
2022-10-21T03:40:30.050Z,100707.31
2022-10-21T03:42:33.464Z,100720.13
2022-10-21T03:44:44.858Z,100699.69
2022-10-21T03:46:47.337Z,100742.41
2022-10-21T03:48:49.876Z,100621.47
2022-10-21T03:50:52.399Z,100608.56
2022-10-21T03:52:55.331Z,100689.31
2022-10-21T03:54:57.868Z,100714.47
2022-10-21T03:57:02.502Z,100687.06
2022-10-21T03:59:05.043Z,100712.84
2022-10-21T04:01:10.978Z,100710.88
2022-10-21T04:03:13.565Z,100702.44
2022-10-21T04:05:16.368Z,100710.63
2022-10-21T04:07:18.886Z,100699.22
2022-10-21T04:09:21.389Z,100682.34
2022-10-21T04:11:24.005Z,100663.47
2022-10-21T04:13:27.502Z,100676.88
2022-10-21T04:15:30.124Z,100658.59
2022-10-21T04:17:32.705Z,100591.38
2022-10-21T04:19:35.230Z,100681.34
2022-10-21T04:21:37.744Z,100662.75
2022-10-21T04:23:40.356Z,100568.72
2022-10-21T04:25:47.512Z,100676.00
2022-10-21T04:27:51.489Z,100671.75
2022-10-21T04:29:54.046Z,100652.88
2022-10-21T04:34:04.917Z,100647.38
2022-10-21T04:36:07.824Z,100610.66
2022-10-21T04:38:10.880Z,100624.84
2022-10-21T04:40:13.450Z,100650.13
2022-10-21T04:42:16.011Z,100636.59
2022-10-21T04:44:18.815Z,100651.19
2022-10-21T04:46:22.020Z,100638.16
2022-10-21T04:48:25.875Z,100467.16
2022-10-21T04:50:28.485Z,100625.97
2022-10-21T04:52:36.916Z,100614.09
2022-10-21T04:54:39.661Z,100608.00
2022-10-21T04:56:43.084Z,100653.72
2022-10-21T04:58:45.589Z,100612.25
2022-10-21T05:00:50.228Z,100634.25
2022-10-21T05:02:52.768Z,100612.31
2022-10-21T05:05:00.156Z,100645.25
2022-10-21T05:07:02.684Z,100596.47
2022-10-21T05:09:05.293Z,100552.38
2022-10-21T05:11:07.831Z,100616.13
2022-10-21T05:13:10.531Z,100628.00
2022-10-21T05:15:14.599Z,100612.00
2022-10-21T05:17:17.093Z,100552.59
2022-10-21T05:19:19.701Z,100527.47
2022-10-21T05:21:22.307Z,100531.44
2022-10-21T05:23:26.987Z,100526.13
2022-10-21T05:25:34.121Z,100623.34
2022-10-21T05:27:37.085Z,100597.84
2022-10-21T05:29:41.533Z,100466.06
2022-10-21T05:31:44.957Z,100607.59
2022-10-21T05:33:49.856Z,100609.00
2022-10-21T05:36:06.876Z,100621.50
2022-10-21T05:38:09.452Z,100537.84
2022-10-21T05:40:20.523Z,100590.13
2022-10-21T05:42:23.104Z,100537.19
2022-10-21T05:44:25.629Z,100573.94
2022-10-21T05:46:28.553Z,100562.88
2022-10-21T05:48:31.393Z,100553.91
2022-10-21T05:50:37.305Z,100592.09
2022-10-21T05:52:41.193Z,100603.72
2022-10-21T05:54:46.314Z,100603.72
2022-10-21T05:56:49.937Z,100508.94
2022-10-21T05:58:52.590Z,100552.34
2022-10-21T06:01:49.711Z,100618.56
2022-10-21T06:03:52.644Z,100599.44
2022-10-21T06:05:55.528Z,100566.03
2022-10-21T06:07:58.077Z,100606.28
2022-10-21T06:10:00.650Z,100576.03
2022-10-21T06:12:20.697Z,100590.47
2022-10-21T06:14:25.713Z,100564.66
2022-10-21T06:16:28.811Z,100604.03
2022-10-21T06:18:31.487Z,100491.91
2022-10-21T06:20:34.184Z,100537.41
2022-10-21T06:22:36.755Z,100598.25
2022-10-21T06:24:39.264Z,100595.19
2022-10-21T06:26:41.933Z,100580.53
2022-10-21T06:28:55.612Z,100585.63
2022-10-21T06:30:58.616Z,100582.69
2022-10-21T06:33:06.538Z,100607.94
2022-10-21T06:35:12.975Z,100569.69
2022-10-21T06:37:28.228Z,100428.56
2022-10-21T06:42:14.448Z,100596.78
2022-10-21T06:59:24.653Z,100572.16
2022-10-21T07:01:41.791Z,100624.34
2022-10-21T07:03:55.821Z,100642.94
2022-10-21T07:06:00.033Z,100628.38
2022-10-21T07:08:03.540Z,100610.63
2022-10-21T07:10:06.389Z,100634.63
2022-10-21T07:12:08.926Z,100614.41
2022-10-21T07:14:12.657Z,100626.50
2022-10-21T07:16:24.655Z,100581.94
2022-10-21T07:18:27.980Z,100613.91
2022-10-21T07:20:35.007Z,100627.56
2022-10-21T07:22:37.586Z,100613.72
2022-10-21T07:24:40.270Z,100630.75
2022-10-21T07:26:42.785Z,100607.47
2022-10-21T07:28:47.893Z,100642.59
2022-10-21T07:30:50.482Z,100617.19
2022-10-21T07:32:53.114Z,100599.69
2022-10-21T07:34:55.665Z,100618.59
2022-10-21T07:36:58.301Z,100544.34
2022-10-21T07:39:06.252Z,100609.44
2022-10-21T07:41:14.068Z,100608.44
2022-10-21T07:43:18.200Z,100512.94
2022-10-21T07:45:21.867Z,100617.19
2022-10-21T07:47:26.679Z,100621.75
2022-10-21T07:49:29.220Z,100606.41
2022-10-21T07:51:33.123Z,100590.03
2022-10-21T07:53:35.766Z,100602.81
2022-10-21T07:55:38.396Z,100496.25
2022-10-21T07:57:41.461Z,100508.75
2022-10-21T07:59:46.132Z,100541.94
2022-10-21T08:03:55.474Z,100608.31
2022-10-21T08:05:58.311Z,100597.72
2022-10-21T08:08:00.850Z,100594.00
2022-10-21T08:10:05.629Z,100561.94
2022-10-21T08:12:10.456Z,100578.41
2022-10-21T08:14:16.031Z,100508.19
2022-10-21T08:16:19.040Z,100593.81
2022-10-21T08:18:22.154Z,100519.63
2022-10-21T08:20:24.716Z,100589.88
2022-10-21T08:22:27.294Z,100573.44
2022-10-21T08:24:30.286Z,100595.69
2022-10-21T08:26:33.642Z,100591.97
2022-10-21T08:28:36.922Z,100593.03
2022-10-21T08:30:39.443Z,100471.25
2022-10-21T08:32:42.025Z,100585.88
2022-10-21T08:34:45.064Z,100493.72
2022-10-21T08:36:47.634Z,100595.94
2022-10-21T08:38:50.481Z,100585.34
2022-10-21T08:40:55.640Z,100572.88
2022-10-21T08:43:28.969Z,100601.50
2022-10-21T08:45:48.876Z,100555.13
2022-10-21T08:47:56.512Z,100543.22
2022-10-21T08:50:15.835Z,100575.78
2022-10-21T08:53:03.479Z,100571.78
2022-10-21T08:55:24.100Z,100590.59
2022-10-21T08:57:27.658Z,100590.84
2022-10-21T08:59:30.193Z,100579.69
2022-10-21T09:01:52.128Z,100552.69
2022-10-21T09:04:19.105Z,100536.25
2022-10-21T09:06:55.390Z,100571.16
2022-10-21T09:09:32.982Z,100563.41
2022-10-21T09:12:07.330Z,100562.03
2022-10-21T09:14:58.534Z,100543.00
2022-10-21T09:17:43.429Z,100568.44
2022-10-21T09:20:17.819Z,100569.81
2022-10-21T09:22:41.953Z,100540.91
2022-10-21T09:25:02.936Z,100526.47
2022-10-21T09:27:09.393Z,100526.38
2022-10-21T09:29:19.573Z,100561.09
2022-10-21T09:31:23.275Z,100552.44
2022-10-21T09:33:32.945Z,100534.03
2022-10-21T09:36:18.181Z,100555.31
2022-10-21T09:38:27.112Z,100551.50
2022-10-21T09:40:31.911Z,100539.28
2022-10-21T09:42:46.888Z,100394.25
2022-10-21T09:44:53.627Z,100538.13
2022-10-21T09:46:58.150Z,100538.31
2022-10-21T09:49:36.319Z,100491.13
2022-10-21T09:51:29.205Z,100462.59
2022-10-21T09:53:34.697Z,100542.16
2022-10-21T09:55:40.017Z,100545.31
2022-10-21T09:57:54.978Z,100546.28
2022-10-21T10:00:02.616Z,100536.44
2022-10-21T10:02:18.724Z,100543.19
2022-10-21T10:04:34.867Z,100528.72
2022-10-21T10:06:42.359Z,100536.84
2022-10-21T10:08:47.583Z,100540.28
2022-10-21T10:10:50.279Z,100515.03
2022-10-21T10:12:58.304Z,100497.44
2022-10-21T10:15:29.306Z,100516.31
2022-10-21T10:17:39.936Z,100489.81
2022-10-21T10:19:44.758Z,100495.91
2022-10-21T10:21:51.344Z,100499.53
2022-10-21T10:23:57.005Z,100493.38
2022-10-21T10:26:01.020Z,100482.22
2022-10-21T10:28:08.729Z,100501.66
2022-10-21T10:30:15.100Z,100492.38
2022-10-21T10:32:18.180Z,100481.88
2022-10-21T10:34:28.697Z,100509.31
2022-10-21T10:36:38.256Z,100486.13
2022-10-21T10:38:52.033Z,100494.44
2022-10-21T10:40:56.448Z,100497.81
2022-10-21T10:43:10.099Z,100487.44
2022-10-21T10:45:22.704Z,100507.03
2022-10-21T10:47:31.796Z,100490.44
2022-10-21T10:49:41.726Z,100497.38
2022-10-21T10:51:48.313Z,100487.78
2022-10-21T10:54:17.549Z,100491.34
2022-10-21T10:56:38.504Z,100467.91
2022-10-21T10:58:51.020Z,100485.59
2022-10-21T11:01:01.114Z,100476.06
2022-10-21T11:03:11.385Z,100492.00
2022-10-21T11:05:20.161Z,100490.88
2022-10-21T11:07:57.696Z,100464.13
2022-10-21T11:10:18.348Z,100449.47
2022-10-21T11:12:26.552Z,100492.88
2022-10-21T11:14:29.362Z,100471.25
2022-10-21T11:16:59.969Z,100488.13
2022-10-21T11:19:20.438Z,100489.88
2022-10-21T11:21:48.264Z,100474.06
2022-10-21T11:24:29.142Z,100469.25
2022-10-21T11:26:44.498Z,100450.78
2022-10-21T11:29:05.456Z,100338.34
2022-10-21T11:31:53.737Z,100463.66
2022-10-21T11:34:32.144Z,100488.66
2022-10-21T11:36:44.002Z,100486.16
2022-10-21T11:39:21.553Z,100472.72
2022-10-21T11:41:33.171Z,100423.22
2022-10-21T11:44:13.966Z,100476.59
2022-10-21T11:46:40.661Z,100489.66
2022-10-21T11:49:50.630Z,100461.97
2022-10-21T11:52:20.878Z,100477.63
2022-10-21T11:55:00.897Z,100481.91
2022-10-21T11:57:41.310Z,100472.31
2022-10-21T12:00:00.311Z,100445.59
2022-10-21T12:02:29.585Z,100460.00
2022-10-21T12:04:46.906Z,100452.09
2022-10-21T12:07:00.895Z,100474.25
2022-10-21T12:09:13.583Z,100422.75
2022-10-21T12:11:28.138Z,100439.38
2022-10-21T12:13:55.165Z,100452.31
2022-10-21T12:16:02.633Z,100463.63
2022-10-21T12:18:06.903Z,100417.22
2022-10-21T12:20:25.404Z,100472.13
2022-10-21T12:22:31.247Z,100476.00
2022-10-21T12:24:35.081Z,100474.66
2022-10-21T12:26:58.196Z,100465.03
2022-10-21T12:29:25.422Z,100468.72
2022-10-21T12:31:53.353Z,100465.47
2022-10-21T12:33:56.404Z,100464.91
2022-10-21T12:36:51.709Z,100438.53
2022-10-21T12:38:57.647Z,100463.31
2022-10-21T12:41:34.462Z,100459.28
2022-10-21T12:43:40.118Z,100435.53
2022-10-21T12:45:43.146Z,100446.34
2022-10-21T12:47:45.908Z,100423.09
2022-10-21T12:50:14.129Z,100417.84
2022-10-21T12:52:24.231Z,100341.66
2022-10-21T12:54:40.168Z,100436.72
2022-10-21T12:56:46.300Z,100397.66
2022-10-21T12:58:56.681Z,100391.41
2022-10-21T13:01:01.191Z,100415.72
2022-10-21T13:03:20.161Z,100370.59
2022-10-21T13:05:37.612Z,100429.31
2022-10-21T13:07:40.378Z,100422.72
2022-10-21T13:09:52.163Z,100442.16
2022-10-21T13:12:08.036Z,100264.91
2022-10-21T13:14:16.656Z,100427.00
2022-10-21T13:16:19.711Z,100422.47
2022-10-21T13:19:14.558Z,100417.38
2022-10-21T13:22:10.508Z,100413.84
2022-10-21T13:24:21.149Z,100300.69
2022-10-21T13:26:30.224Z,100384.84
2022-10-21T13:28:32.786Z,100404.56
2022-10-21T13:30:39.565Z,100425.63
2022-10-21T13:32:46.454Z,100432.25
2022-10-21T13:34:48.966Z,100425.34
2022-10-21T13:36:52.978Z,100325.13
2022-10-21T13:38:56.680Z,100412.69
2022-10-21T13:41:20.508Z,100372.69
2022-10-21T13:43:49.169Z,100391.13
2022-10-21T13:45:59.368Z,100381.25
2022-10-21T13:48:30.168Z,100407.19
2022-10-21T13:50:38.868Z,100430.53
2022-10-21T13:52:45.194Z,100426.34
2022-10-21T13:55:02.150Z,100406.31
2022-10-21T13:57:08.977Z,100403.00
2022-10-21T13:59:26.212Z,100426.88
2022-10-21T14:01:54.199Z,100433.03
2022-10-21T14:04:14.196Z,100438.34
2022-10-21T14:06:31.523Z,100444.53
2022-10-21T14:08:42.384Z,100444.28
2022-10-21T14:10:47.123Z,100415.53
2022-10-21T14:12:51.281Z,100411.56
2022-10-21T14:15:02.449Z,100422.09
2022-10-21T14:17:17.029Z,100416.09
2022-10-21T14:19:26.787Z,100433.06
2022-10-21T14:21:36.630Z,100431.25
2022-10-21T14:23:39.266Z,100382.72
2022-10-21T14:25:42.426Z,100378.03
2022-10-21T14:27:47.351Z,100358.56
2022-10-21T14:29:52.920Z,100402.09
2022-10-21T14:31:59.953Z,100379.16
2022-10-21T14:34:04.569Z,100308.41
2022-10-21T14:36:16.593Z,100411.38
2022-10-21T14:38:39.283Z,100361.75
2022-10-21T14:40:42.804Z,100402.91
2022-10-21T14:42:48.645Z,100387.13
2022-10-21T14:45:03.706Z,100397.63
2022-10-21T14:47:06.462Z,100404.47
2022-10-21T14:49:23.790Z,100400.75
2022-10-21T14:51:27.641Z,100379.94
2022-10-21T14:53:35.128Z,100400.25
2022-10-21T14:55:39.961Z,100373.34
2022-10-21T14:57:53.640Z,100396.09
2022-10-21T14:59:56.830Z,100301.06
2022-10-21T15:02:01.200Z,100403.28
2022-10-21T15:04:03.859Z,100356.28
2022-10-21T15:06:35.231Z,100394.59
2022-10-21T15:08:58.459Z,100404.66
2022-10-21T15:11:06.127Z,100395.66
2022-10-21T15:13:20.637Z,100375.13
2022-10-21T15:15:40.832Z,100392.81
2022-10-21T15:17:44.236Z,100360.84
2022-10-21T15:19:51.562Z,100350.38
2022-10-21T15:21:59.265Z,100393.72
2022-10-21T15:24:05.260Z,100358.31
2022-10-21T15:26:34.151Z,100393.25
2022-10-21T15:28:41.925Z,100396.16
2022-10-21T15:30:45.080Z,100351.81
2022-10-21T15:32:49.412Z,100389.59
2022-10-21T15:34:54.278Z,100376.34
2022-10-21T15:36:57.961Z,100388.31
2022-10-21T15:39:02.295Z,100375.91
2022-10-21T15:41:12.275Z,100359.50
2022-10-21T15:43:14.900Z,100346.84
2022-10-21T15:45:24.621Z,100381.66
2022-10-21T15:47:27.255Z,100361.63
2022-10-21T15:49:38.082Z,100358.22
2022-10-21T15:51:40.642Z,100340.56
2022-10-21T15:53:44.555Z,100375.41
2022-10-21T15:55:47.316Z,100366.91
2022-10-21T15:57:50.547Z,100364.31
2022-10-21T15:59:53.164Z,100377.56
2022-10-21T16:01:56.700Z,100345.53
2022-10-21T16:03:59.671Z,100308.84
2022-10-21T16:06:02.169Z,100379.91
2022-10-21T16:08:05.060Z,100364.84
2022-10-21T16:10:22.727Z,100378.59
2022-10-21T16:12:25.560Z,100320.03
2022-10-21T16:14:30.824Z,100386.56
2022-10-21T16:16:33.730Z,100359.88
2022-10-21T16:18:38.714Z,100375.47
2022-10-21T16:20:43.154Z,100373.41
2022-10-21T16:22:45.763Z,100377.41
2022-10-21T16:24:48.438Z,100364.19
2022-10-21T16:26:50.995Z,100373.94
2022-10-21T16:28:56.612Z,100390.06
2022-10-21T16:31:08.459Z,100400.41
2022-10-21T16:33:11.357Z,100315.88
2022-10-21T16:35:22.918Z,100349.72
2022-10-21T16:37:28.093Z,100311.38
2022-10-21T16:39:30.756Z,100263.28
2022-10-21T16:41:35.442Z,100297.84
2022-10-21T16:43:37.973Z,100275.66
2022-10-21T16:45:42.060Z,100323.25
2022-10-21T16:47:59.860Z,100367.84
2022-10-21T16:50:05.813Z,100405.38
2022-10-21T16:52:14.283Z,100394.28
2022-10-21T16:54:16.902Z,100406.97
2022-10-21T16:56:19.518Z,100384.50
2022-10-21T16:58:22.197Z,100296.03
2022-10-21T17:00:24.841Z,100411.28
2022-10-21T17:02:27.429Z,100389.31
2022-10-21T17:04:31.665Z,100419.19
2022-10-21T17:06:34.275Z,100391.41
2022-10-21T17:08:37.285Z,100432.66
2022-10-21T17:10:39.902Z,100419.19
2022-10-21T17:12:42.887Z,100416.28
2022-10-21T17:14:45.527Z,100439.00
2022-10-21T17:16:48.111Z,100432.41
2022-10-21T17:18:50.777Z,100439.72
2022-10-21T17:20:53.404Z,100426.59
2022-10-21T17:23:02.266Z,100435.06
2022-10-21T17:25:05.263Z,100423.06
2022-10-21T17:27:07.742Z,100451.41
2022-10-21T17:29:13.796Z,100336.00
2022-10-21T17:32:07.273Z,100433.91
2022-10-21T17:34:26.273Z,100419.94
2022-10-21T17:36:28.802Z,100413.03
2022-10-21T17:38:31.454Z,100415.16
2022-10-21T17:40:33.963Z,100363.34
2022-10-21T17:42:36.607Z,100410.88
2022-10-21T17:44:39.279Z,100405.09
2022-10-21T17:46:42.391Z,100434.91
2022-10-21T17:48:52.037Z,100436.81
2022-10-21T17:50:56.966Z,100425.16
2022-10-21T17:53:05.232Z,100422.00
2022-10-21T17:55:08.446Z,100419.91
2022-10-21T17:57:13.819Z,100428.66
2022-10-21T17:59:16.353Z,100432.59
2022-10-21T18:01:19.488Z,100435.75
2022-10-21T18:03:26.662Z,100418.03
2022-10-21T18:05:29.144Z,100383.94
2022-10-21T18:07:33.359Z,100440.47
2022-10-21T18:09:35.928Z,100332.38
2022-10-21T18:11:38.509Z,100433.31
2022-10-21T18:13:43.603Z,100448.69
2022-10-21T18:15:46.260Z,100355.47
2022-10-21T18:17:48.807Z,100446.88
2022-10-21T18:19:53.026Z,100442.13
2022-10-21T18:21:55.572Z,100423.31
2022-10-21T18:23:58.872Z,100425.66
2022-10-21T18:26:14.147Z,100432.50
2022-10-21T18:28:16.668Z,100381.75
2022-10-21T18:30:20.489Z,100409.72
2022-10-21T18:32:23.035Z,100395.47
2022-10-21T18:34:26.378Z,100424.72
2022-10-21T18:36:30.321Z,100297.72
2022-10-21T18:38:32.857Z,100397.50
2022-10-21T18:40:43.695Z,100328.31
2022-10-21T18:42:54.621Z,100425.56
2022-10-21T18:44:57.218Z,100422.88
2022-10-21T18:46:59.713Z,100389.31
2022-10-21T18:49:05.644Z,100422.63
2022-10-21T18:51:10.632Z,100416.00
2022-10-21T18:53:13.177Z,100408.06
2022-10-21T18:55:15.694Z,100388.75
2022-10-21T18:57:18.324Z,100333.53
2022-10-21T18:59:21.204Z,100319.50
2022-10-21T19:01:25.593Z,100359.69
2022-10-21T19:03:28.486Z,100407.50
2022-10-21T19:05:42.128Z,100411.72
2022-10-21T19:07:44.923Z,100388.25
2022-10-21T19:09:47.507Z,100383.00
2022-10-21T19:11:50.249Z,100410.72
2022-10-21T19:13:54.256Z,100407.28
2022-10-21T19:15:56.878Z,100422.91
2022-10-21T19:17:59.931Z,100439.03
2022-10-21T19:20:03.736Z,100408.63
2022-10-21T19:22:06.748Z,100432.41
2022-10-21T19:24:10.498Z,100404.38
2022-10-21T19:26:14.051Z,100439.28
2022-10-21T19:28:16.757Z,100385.66
2022-10-21T19:30:19.279Z,100428.22
2022-10-21T19:32:21.833Z,100435.09
2022-10-21T19:34:28.215Z,100421.91
2022-10-21T19:36:30.714Z,100439.34
2022-10-21T19:38:49.588Z,100408.75
2022-10-21T19:40:52.338Z,100415.94
2022-10-21T19:42:54.877Z,100447.69
2022-10-21T19:44:57.386Z,100360.78
2022-10-21T19:46:59.974Z,100356.78
2022-10-21T19:49:05.500Z,100465.66
2022-10-21T19:51:15.191Z,100467.56
2022-10-21T19:53:18.248Z,100435.47
2022-10-21T19:55:22.654Z,100422.84
2022-10-21T19:57:25.181Z,100420.69
2022-10-21T19:59:27.858Z,100374.50
2022-10-21T20:01:34.623Z,100449.53
2022-10-21T20:03:43.295Z,100475.44
2022-10-21T20:05:45.849Z,100475.72
2022-10-21T20:07:48.410Z,100442.94
2022-10-21T20:09:50.974Z,100455.34
2022-10-21T20:11:55.147Z,100296.28
2022-10-21T20:13:58.107Z,100440.97
2022-10-21T20:16:01.289Z,100419.00
2022-10-21T20:18:05.498Z,100389.22
2022-10-21T20:20:08.396Z,100440.22
2022-10-21T20:22:11.018Z,100355.69
2022-10-21T20:24:16.174Z,100410.88
2022-10-21T20:26:20.603Z,100398.78
2022-10-21T20:28:24.379Z,100453.16
2022-10-21T20:30:26.979Z,100356.50
2022-10-21T20:32:31.876Z,100414.03
2022-10-21T20:34:37.852Z,100428.56
2022-10-21T20:36:40.737Z,100425.69
2022-10-21T20:38:43.631Z,100453.19
2022-10-21T20:41:03.104Z,100477.25
2022-10-21T20:43:06.143Z,100334.34
2022-10-21T20:45:09.373Z,100445.06
2022-10-21T20:47:12.941Z,100473.31
2022-10-21T20:49:15.505Z,100454.53
2022-10-21T20:51:27.272Z,100473.84
2022-10-21T20:53:31.275Z,100455.28
2022-10-21T20:55:36.040Z,100484.41
2022-10-21T20:57:39.064Z,100474.13
2022-10-21T20:59:41.664Z,100475.47
2022-10-21T21:01:48.302Z,100472.81
2022-10-21T21:03:53.087Z,100424.25
2022-10-21T21:05:55.839Z,100480.78
2022-10-21T21:07:58.391Z,100470.50
2022-10-21T21:10:03.377Z,100481.88
2022-10-21T21:12:09.951Z,100468.13
2022-10-21T21:14:12.473Z,100486.69
2022-10-21T21:16:21.145Z,100501.44
2022-10-21T21:18:23.859Z,100387.00
2022-10-21T21:20:26.415Z,100477.31
2022-10-21T21:22:28.927Z,100487.63
2022-10-21T21:24:32.577Z,100483.94
2022-10-21T21:26:38.414Z,100462.81
2022-10-21T21:28:46.025Z,100481.84
2022-10-21T21:30:52.716Z,100476.56
2022-10-21T21:33:09.312Z,100485.78
2022-10-21T21:35:11.921Z,100475.22
2022-10-21T21:37:15.592Z,100460.69
2022-10-21T21:39:18.119Z,100499.59
2022-10-21T21:41:23.057Z,100485.03
2022-10-21T21:43:27.272Z,100486.13
2022-10-21T21:45:29.863Z,100461.03
2022-10-21T21:47:32.375Z,100491.19
2022-10-21T21:49:38.226Z,100472.41
2022-10-21T21:51:40.781Z,100467.66
2022-10-21T21:53:43.366Z,100493.84
2022-10-21T21:55:47.320Z,100392.34
2022-10-21T21:57:50.549Z,100442.59
2022-10-21T21:59:53.140Z,100379.97
2022-10-21T22:01:56.861Z,100359.34
2022-10-21T22:04:00.601Z,100490.47
2022-10-21T22:06:03.453Z,100461.66
2022-10-21T22:08:06.154Z,100477.31
2022-10-21T22:10:09.340Z,100503.78
2022-10-21T22:12:14.743Z,100508.81
2022-10-21T22:14:17.669Z,100511.19
2022-10-21T22:16:22.245Z,100500.56
2022-10-21T22:18:24.854Z,100457.53
2022-10-21T22:20:27.424Z,100493.75
2022-10-21T22:22:37.859Z,100485.81
2022-10-21T22:24:40.737Z,100492.69
2022-10-21T22:26:43.240Z,100445.09
2022-10-21T22:28:46.951Z,100459.38
2022-10-21T22:31:08.589Z,100472.59
2022-10-21T22:33:11.889Z,100487.94
2022-10-21T22:35:14.466Z,100359.94
2022-10-21T22:37:16.981Z,100457.53
2022-10-21T22:39:19.526Z,100456.75
2022-10-21T22:41:22.897Z,100465.75
2022-10-21T22:43:27.587Z,100514.16
2022-10-21T22:45:32.841Z,100500.44
2022-10-21T22:47:36.595Z,100461.31
2022-10-21T22:49:39.217Z,100511.00
2022-10-21T22:51:41.877Z,100496.47
2022-10-21T22:53:44.619Z,100467.38
2022-10-21T22:55:47.245Z,100511.81
2022-10-21T22:57:49.885Z,100506.53
2022-10-21T22:59:53.560Z,100474.25
2022-10-21T23:01:57.627Z,100512.88
2022-10-21T23:04:04.350Z,100512.09
2022-10-21T23:06:07.120Z,100498.31
2022-10-21T23:08:18.385Z,100469.72
2022-10-21T23:10:20.933Z,100449.34
2022-10-21T23:12:23.640Z,100471.56
2022-10-21T23:14:26.330Z,100462.28
2022-10-21T23:16:29.634Z,100436.66
2022-10-21T23:18:32.145Z,100435.34
2022-10-21T23:20:56.474Z,100468.19
2022-10-21T23:22:59.089Z,100448.88
2022-10-21T23:25:01.777Z,100435.66
2022-10-21T23:27:04.522Z,100463.22
2022-10-21T23:29:07.049Z,100432.03
2022-10-21T23:31:09.636Z,100433.88
2022-10-21T23:33:12.209Z,100472.28
2022-10-21T23:35:18.383Z,100349.00
2022-10-21T23:39:23.459Z,100421.50
2022-10-21T23:41:26.073Z,100485.53
2022-10-21T23:43:28.627Z,100496.13
2022-10-21T23:45:31.188Z,100475.50
2022-10-21T23:47:34.079Z,100498.25
2022-10-21T23:49:36.530Z,100434.19
2022-10-21T23:51:39.076Z,100492.16
2022-10-21T23:53:41.605Z,100438.19
2022-10-21T23:55:44.108Z,100495.88
2022-10-21T23:57:46.669Z,100503.56
2022-10-21T23:59:49.920Z,100482.38
